Weather History for KTTF - December, 2012

Change the Weather History Date:

Thursday, December 27, 2012

  Actual Average Record
Temperature  
Mean Temperature 23 °F -  
Max Temperature 32 °F 31 °F 64 °F (2008)
Min Temperature 14 °F 18 °F -5 °F (1933)
Degree Days  
Heating Degree Days 42    
Moisture  
Dew Point 24 °F    
Average Humidity 88    
Maximum Humidity 100    
Minimum Humidity 74    
Precipitation  
Precipitation 0.00 in - - ()
Sea Level Pressure  
Sea Level Pressure 30.02 in    
Wind  
Wind Speed 8 mph (NW)    
Max Wind Speed 14 mph    
Max Gust Speed 18 mph    
Visibility 8 miles    
Events Fog , Snow    
Averages and records for this station are not official NWS values.
T = Trace of Precipitation, MM = Missing Value Source: NWS Daily Summary

Daily Weather History Graph

Daily Weather History Graph

Search for Another Location

Airport or City:

Trip Planner

Search our weather history database for the weather conditions in past years. The results will help you decide how hot, cold, wet, or windy it might be!

Date:

Astronomy

Dec. 27, 2012 Rise Set
Actual Time 8:00 AM EST 5:09 PM EST
Civil Twilight 7:29 AM EST 5:41 PM EST
Nautical Twilight 6:53 AM EST 6:16 PM EST
Astronomical Twilight 6:19 AM EST 6:50 PM EST
Moon 4:52 PM EST (12/27) 7:10 AM EST (12/27)
Length of Visible Light 10h 12m
Length of Day
9h 08m
Full, 100% of the Moon is Illuminated
Dec 27
Full
Dec 28
Full
Jan 4
Last Quarter
Jan 11
New
Jan 18
First Quarter

Hourly Weather History & Observations

Time (EST) Temp. Windchill Dew Point Humidity Pressure Visibility Wind Dir Wind Speed Gust Speed Precip Events Conditions
12:12 AM 28.4 °F 19.1 °F 26.6 °F 93% 29.83 in 3.0 mi North 10.4 mph - N/A Snow Light Snow
12:32 AM 28.4 °F 21.2 °F 26.6 °F 93% 29.84 in 7.0 mi NNW 6.9 mph - N/A Snow Light Snow
1:12 AM 28.4 °F 21.2 °F 26.6 °F 93% 29.84 in 5.0 mi NNW 6.9 mph - N/A Snow Light Snow
1:32 AM 28.4 °F 22.2 °F 26.6 °F 93% 29.84 in 3.0 mi NNW 5.8 mph - N/A Snow Light Snow
1:52 AM 28.4 °F 20.4 °F 28.4 °F 100% 29.85 in 3.0 mi North 8.1 mph - N/A Snow Light Snow
2:15 AM 28.4 °F 23.3 °F 28.4 °F 100% 29.85 in 4.0 mi NNW 4.6 mph - N/A Snow Light Snow
2:35 AM 30.2 °F 21.9 °F 28.4 °F 93% 29.86 in 4.0 mi NW 9.2 mph - N/A Snow Light Snow
2:55 AM 30.2 °F 21.9 °F 28.4 °F 93% 29.88 in 5.0 mi NNW 9.2 mph - N/A Snow Light Snow
3:15 AM 30.2 °F 21.9 °F 28.4 °F 93% 29.88 in 2.5 mi NW 9.2 mph - N/A Snow Light Snow
3:35 AM 28.4 °F 19.7 °F 26.6 °F 93% 29.89 in 2.0 mi NW 9.2 mph 16.1 mph N/A Snow Light Snow
3:55 AM 28.4 °F 18.5 °F 26.6 °F 93% 29.89 in 7.0 mi NW 11.5 mph - N/A Snow Light Snow
4:15 AM 28.4 °F 18.5 °F 26.6 °F 93% 29.89 in 10.0 mi NNW 11.5 mph - N/A   Overcast
4:53 AM 30.2 °F 20.8 °F 26.6 °F 86% 29.90 in 10.0 mi NNW 11.5 mph - N/A   Overcast
5:13 AM 30.2 °F 21.3 °F 26.6 °F 86% 29.91 in 10.0 mi NNW 10.4 mph - N/A   Overcast
5:33 AM 30.2 °F 21.9 °F 26.6 °F 86% 29.92 in 10.0 mi NW 9.2 mph - N/A   Overcast
5:53 AM 30.2 °F 21.3 °F 26.6 °F 86% 29.93 in 10.0 mi NW 10.4 mph - N/A   Overcast
6:13 AM 30.2 °F 21.3 °F 26.6 °F 86% 29.94 in 10.0 mi NW 10.4 mph - N/A   Overcast
6:33 AM 30.2 °F 21.3 °F 26.6 °F 86% 29.95 in 10.0 mi NW 10.4 mph - N/A   Overcast
6:53 AM 30.2 °F 20.8 °F 26.6 °F 86% 29.97 in 10.0 mi NW 11.5 mph 18.4 mph N/A   Overcast
7:13 AM 30.2 °F 20.2 °F 26.6 °F 86% 29.98 in 10.0 mi NW 12.7 mph 17.3 mph N/A   Overcast
7:33 AM 30.2 °F 20.8 °F 26.6 °F 86% 29.99 in 10.0 mi NW 11.5 mph - N/A   Overcast
7:53 AM 28.4 °F 17.5 °F 26.6 °F 93% 29.99 in 10.0 mi NNW 13.8 mph - N/A   Overcast
8:14 AM 28.4 °F 18.0 °F 26.6 °F 93% 30.00 in 10.0 mi NNW 12.7 mph - N/A   Overcast
8:34 AM 28.4 °F 18.5 °F 26.6 °F 93% 30.01 in 10.0 mi NW 11.5 mph - N/A   Overcast
8:54 AM 28.4 °F 18.0 °F 26.6 °F 93% 30.01 in 10.0 mi NW 12.7 mph 17.3 mph N/A   Overcast
9:14 AM 30.2 °F 20.8 °F 26.6 °F 86% 30.02 in 10.0 mi NNW 11.5 mph - N/A   Overcast
9:34 AM 30.2 °F 20.2 °F 26.6 °F 86% 30.03 in 10.0 mi NNW 12.7 mph 17.3 mph N/A   Overcast
9:54 AM 30.2 °F 20.8 °F 26.6 °F 86% 30.04 in 10.0 mi NW 11.5 mph - N/A   Overcast
10:14 AM 30.2 °F 21.3 °F 26.6 °F 86% 30.06 in 10.0 mi NW 10.4 mph - N/A   Overcast
10:34 AM 30.2 °F 22.6 °F 26.6 °F 86% 30.07 in 10.0 mi NW 8.1 mph - N/A   Overcast
10:54 AM 30.2 °F 21.9 °F 26.6 °F 86% 30.07 in 10.0 mi NW 9.2 mph - N/A   Overcast
11:14 AM 30.2 °F 22.6 °F 26.6 °F 86% 30.07 in 10.0 mi NW 8.1 mph - N/A   Overcast
11:55 AM 30.2 °F 22.6 °F 24.8 °F 80% 30.06 in 10.0 mi NW 8.1 mph - N/A   Overcast
12:15 PM 30.2 °F 21.3 °F 24.8 °F 80% 30.06 in 10.0 mi WNW 10.4 mph - N/A   Overcast
12:35 PM 30.2 °F 21.9 °F 24.8 °F 80% 30.06 in 10.0 mi NW 9.2 mph - N/A   Mostly Cloudy
12:55 PM 30.2 °F 22.6 °F 24.8 °F 80% 30.05 in 10.0 mi NW 8.1 mph - N/A   Scattered Clouds
1:15 PM 30.2 °F 21.9 °F 24.8 °F 80% 30.05 in 10.0 mi NW 9.2 mph - N/A   Clear
1:35 PM 32.0 °F 25.6 °F 24.8 °F 75% 30.05 in 10.0 mi West 6.9 mph - N/A   Clear
1:55 PM 30.2 °F 21.3 °F 24.8 °F 80% 30.05 in 10.0 mi West 10.4 mph - N/A   Clear
2:15 PM 30.2 °F 21.9 °F 24.8 °F 80% 30.05 in 10.0 mi West 9.2 mph - N/A   Clear
2:36 PM 30.2 °F 21.9 °F 24.8 °F 80% 30.05 in 10.0 mi West 9.2 mph - N/A   Clear
2:56 PM 30.2 °F 21.9 °F 24.8 °F 80% 30.06 in 10.0 mi West 9.2 mph - N/A   Clear
3:11 PM 30.2 °F 22.6 °F 24.8 °F 80% 30.06 in 10.0 mi West 8.1 mph - N/A   Clear
3:31 PM 30.2 °F 22.6 °F 24.8 °F 80% 30.06 in 10.0 mi West 8.1 mph - N/A   Clear
3:51 PM 30.2 °F 24.3 °F 24.8 °F 80% 30.06 in 10.0 mi WNW 5.8 mph - N/A   Clear
4:11 PM 30.2 °F 24.3 °F 23.0 °F 75% 30.07 in 10.0 mi West 5.8 mph - N/A   Clear
4:31 PM 30.2 °F 24.3 °F 23.0 °F 75% 30.07 in 10.0 mi West 5.8 mph - N/A   Clear
4:51 PM 28.4 °F 22.2 °F 21.2 °F 74% 30.08 in 10.0 mi West 5.8 mph - N/A   Clear
5:11 PM 26.6 °F 20.0 °F 21.2 °F 80% 30.09 in 10.0 mi West 5.8 mph - N/A   Clear
5:32 PM 26.6 °F 22.6 °F 21.2 °F 80% 30.08 in 10.0 mi WNW 3.5 mph - N/A   Clear
5:52 PM 24.8 °F 19.1 °F 19.4 °F 80% 30.09 in 10.0 mi West 4.6 mph - N/A   Clear
6:12 PM 23.0 °F 18.4 °F 19.4 °F 86% 30.10 in 10.0 mi WNW 3.5 mph - N/A   Clear
6:32 PM 23.0 °F 17.0 °F 19.4 °F 86% 30.11 in 10.0 mi West 4.6 mph - N/A   Clear
7:12 PM 21.2 °F - 19.4 °F 93% 30.12 in 10.0 mi Calm Calm - N/A   Clear
7:32 PM 21.2 °F - 19.4 °F 93% 30.13 in 10.0 mi Calm Calm - N/A   Clear
8:12 PM 19.4 °F - 19.4 °F 100% 30.14 in 10.0 mi Calm Calm - N/A   Clear
8:33 PM 17.6 °F 12.3 °F 15.8 °F 93% 30.14 in 7.0 mi WSW 3.5 mph - N/A   Clear
8:53 PM 19.4 °F - 19.4 °F 100% 30.14 in 10.0 mi Calm Calm - N/A   Clear
9:13 PM 17.6 °F - 17.6 °F 100% 30.14 in 10.0 mi Calm Calm - N/A   Clear
9:33 PM 17.6 °F - 17.6 °F 100% 30.13 in 10.0 mi Calm Calm - N/A   Clear
9:53 PM 17.6 °F - 15.8 °F 93% 30.13 in 5.0 mi Calm Calm - N/A   Clear
10:13 PM 15.8 °F - 15.8 °F 100% 30.13 in 7.0 mi Calm Calm - N/A   Clear
10:33 PM 15.8 °F - 15.8 °F 100% 30.13 in 4.0 mi Calm Calm - N/A   Clear
10:53 PM 14.0 °F - 12.2 °F 93% 30.13 in 0.2 mi Calm Calm - N/A Fog Light Freezing Fog
11:13 PM 15.8 °F - 14.0 °F 93% 30.13 in 3.0 mi Calm Calm - N/A   Clear
11:34 PM 15.8 °F - 14.0 °F 93% 30.13 in 3.0 mi Calm Calm - N/A   Clear
11:54 PM 15.8 °F - 15.8 °F 100% 30.13 in 5.0 mi Calm Calm - N/A   Clear